Portada
METAR-TAF:

METAR-TAF

Aeroports :

Aeroport de Lampedusa

Lampedusa, Itàlia

latitud: 35-30N, longitud: 012-36E, altitud: 16 m

Observació

L'informe es va fer fa 29 minuts, a les 10:50 UTC
Vent 15 kt del Est
Temperatura 16°C
Humitat 88%
Pressió 1014 hPa
Visibilitat 10 km o més
Escasses núvols a una alçada de 1500 ft

METAR: LICD 201050Z 08015KT 9999 FEW015 16/14 Q1014

Hora: 12:19 (11:19 UTC)

Pronòstic

L'informe es va fer fa 6 hores i 19 minuts, a les 05:00 UTC
Pronòstic vàlid del 20 a les 06 UTC al 21 a les 06 UTC
Vent 18 kt del Nord/Nord-Oest
Visibilitat 10 km o més
Núvols disperses a una alçada de 2000 ft
Temporalment
l' 20 a les 06 UTC al 20 a les 12 UTC
Visibilitat: 4000 m
tempesta, pluja
Evolucionant progressivament
l' 21 a les 04 UTC al 21 a les 06 UTC
Vent 25 kt del Est/Nord-Est amb ràfegues de 35 kt

TAF: LICD 200500Z 2006/2106 34018KT 9999 SCT020 TEMPO 2006/2012 4000 TSRA BECMG 2104/2106 06025G35KT

Observacions i pronòstics meteorològics de més de 4000 aeroports (METAR i TAF).

Les estacions disponibles són els punts grocs i vermells al mapa.

Posi el ratolí al punt desitjat per veure el nom de l'estació.

Feu clic per veure les observacions i els pronòstics meteorològics.

Per canviar el mapa: feu clic els botons verds amb una creu de color negre per apropar; al botó verd amb un guió per allunyar la imatge; o en les fletxes verdes per a mapes adjacents.


METAR-TAF: